Igor I Sikorsky Memorial Information

FAA: BDR - ICAO: KBDR

Igor I Sikorsky Memorial (Airport) Location

State Connecticut
County Fairfield
City Bridgeport
Igor I Sikorsky Memorial (Airport) is 3 miles southeast of Bridgeport, CT.
Latitude 41-09-48.5000N
Longitude 073-07-34.2000W
Elevation 8ft

Igor I Sikorsky Memorial METARs

METAR KBDR 281252Z 34007KT 10SM OVC032 09/06 A2998 RMK AO2 SLP151 T00940061
Altimeter 29.98"
Temperature 9.4°C (48.9°F)
Wind 340° at 7KT
Clouds overcast at 3,200ft
Visibility 10.0mi
Time observed: 2021-10-28T12:52:00Z

Igor I Sikorsky Memorial (Airport) Details

Status Operational
Activation April 1940
Ownership Public
Usage Public
Chart NEW YORK
ATC on-site Yes
Beacon schedule sunset-sunrise
Beacon color clear green

Igor I Sikorsky Memorial (Airport) Contacts

Owner CITY OF BRIDGEPORT
Owner address 45 LYON TERRACE, BRIDGEPORT, CT 06615
Owner phone 203-576-7201
Manager WILLIAM E. HART, CHIEF PILOT
Manager address OLD WINDSOR ROAD, BLOOMFIELD, CT 06002
Manager phone (860) 243-7813

Igor I Sikorsky Memorial Radio Frequencies

Igor I Sikorsky Memorial (Airport) Radio Frequencies

UNICOM 123
Common traffic advisory frequency (CTAF) 120.9